Latest Weather Observations for Bairnsdale

IDV60801

Issued at 11:05 am EDT Sunday 26 October 2014 (issued every 30 minutes, with the page automatically refreshed every 10 minutes)

About weather observations | Map of weather stations | Latest weather observations for VIC | Other Formats
Station Details ID: 085279 Name: BAIRNSDALE AIRPORT Lat: -37.88 Lon: 147.57 Height: 49.4 m
Data from the previous 72 hours. | See also: Recent months at Bairnsdale
Date/Time
EDT
Temp
°C
App
Temp
°C
Dew
Point
Rel
Hum
%
Delta-T
°C
Wind Press
QNH
hPa
Press
MSL
hPa
Rain
since 9 am
mm
Dir
 
Spd
km/h
Gust
km/h
Spd
kts
Gust
kts
26/11:00am 16.7 15.6 12.0 74 2.6 WNW 9 13 5 7 1013.4 1013.4 0.0
26/10:30am 16.7 16.2 12.7 77 2.2 WNW 7 11 4 6 1013.5 1013.5 0.0
26/10:09am 16.0 15.6 12.9 82 1.7 WNW 7 13 4 7 1013.7 1013.7 0.0
26/10:00am 15.7 15.3 13.0 84 1.5 WNW 7 11 4 6 1013.7 1013.7 0.0
26/09:30am 15.1 14.7 13.1 88 1.1 WSW 7 9 4 5 1013.8 1013.8 0.0
26/09:14am 14.8 14.4 13.0 89 1.0 WSW 7 9 4 5 1013.6 1013.6 0.0
26/09:00am 14.6 14.4 13.0 90 0.9 WSW 6 7 3 4 1013.5 1013.5 0.0
26/08:30am 14.4 14.2 13.1 92 0.7 W 6 7 3 4 1013.2 1013.2 0.0
26/08:00am 14.0 13.8 13.1 94 0.5 W 6 7 3 4 1013.3 1013.3 0.0
26/07:30am 13.6 13.2 13.0 96 0.3 W 7 9 4 5 1013.1 1013.1 0.0
26/07:00am 13.4 12.9 12.8 96 0.3 WSW 7 7 4 4 1013.1 1013.1 0.0
26/06:30am 13.4 12.9 12.8 96 0.3 W 7 9 4 5 1012.8 1012.8 0.0
26/06:00am 13.4 14.2 12.6 95 0.4 CALM 0 0 0 0 1012.6 1012.6 0.0
26/05:30am 13.4 13.0 12.5 94 0.5 SSW 6 7 3 4 1012.5 1012.5 0.0
26/05:00am 13.6 13.3 12.7 94 0.5 SSW 6 9 3 5 1012.5 1012.5 0.0
26/04:30am 13.7 14.5 12.4 92 0.7 CALM 0 0 0 0 1012.6 1012.6 0.0
26/04:00am 13.6 14.3 12.3 92 0.7 CALM 0 0 0 0 1012.4 1012.4 0.0
26/03:30am 13.6 14.4 12.5 93 0.6 CALM 0 0 0 0 1012.8 1012.8 0.0
26/03:00am 13.7 13.7 12.4 92 0.7 W 4 6 2 3 1012.8 1012.8 0.0
26/02:30am 13.8 13.7 12.2 90 0.9 N 4 7 2 4 1013.2 1013.2 0.0
26/02:00am 13.8 13.3 12.0 89 1.0 N 6 7 3 4 1013.9 1013.9 0.0
26/01:30am 14.0 13.4 12.2 89 1.0 NE 7 9 4 5 1014.4 1014.4 0.0
26/01:00am 13.9 13.2 11.9 88 1.1 NE 7 9 4 5 1014.8 1014.8 0.0
26/12:30am 14.0 14.6 12.0 88 1.1 CALM 0 6 0 3 1015.4 1015.4 0.0
26/12:00am 14.1 13.0 12.1 88 1.1 ENE 9 13 5 7 1015.6 1015.6 0.0
 
Date/Time
EDT
Temp
°C
App
Temp
°C
Dew
Point
Rel
Hum
%
Delta-T
°C
Wind Press
QNH
hPa
Press
MSL
hPa
Rain
since 9 am
mm
Dir
 
Spd
km/h
Gust
km/h
Spd
kts
Gust
kts
25/11:30pm 14.1 11.9 12.1 88 1.1 ESE 15 19 8 10 1015.8 1015.8 0.0
25/11:00pm 13.9 12.5 12.1 89 1.0 ESE 11 15 6 8 1016.2 1016.2 0.0
25/10:30pm 13.9 12.4 11.9 88 1.1 E 11 13 6 7 1016.4 1016.4 0.0
25/10:00pm 14.2 12.6 11.7 85 1.3 SE 11 15 6 8 1016.6 1016.6 0.0
25/09:30pm 14.4 12.8 11.6 83 1.5 SE 11 15 6 8 1016.6 1016.6 0.0
25/09:00pm 14.5 13.2 11.3 81 1.7 SE 9 11 5 6 1016.6 1016.6 0.0
25/08:30pm 14.5 13.2 11.3 81 1.7 SE 9 11 5 6 1016.4 1016.4 0.0
25/08:00pm 14.5 13.2 11.3 81 1.7 ESE 9 13 5 7 1016.2 1016.2 0.0
25/07:30pm 14.5 12.8 11.1 80 1.8 ESE 11 15 6 8 1016.0 1016.0 0.0
25/07:00pm 14.8 13.1 11.2 79 1.9 E 11 15 6 8 1015.9 1015.9 0.0
25/06:30pm 15.0 13.0 11.4 79 1.9 ESE 13 17 7 9 1015.6 1015.6 0.0
25/06:00pm 15.2 13.6 11.4 78 2.0 ESE 11 15 6 8 1015.6 1015.6 0.0
25/05:30pm 15.2 13.5 11.2 77 2.1 ESE 11 15 6 8 1015.3 1015.3 0.0
25/05:00pm 15.5 13.5 11.5 77 2.2 ESE 13 19 7 10 1015.2 1015.2 0.0
25/04:30pm 15.5 13.4 11.1 75 2.4 ESE 13 17 7 9 1015.3 1015.3 0.0
25/04:00pm 15.7 13.6 11.3 75 2.4 E 13 17 7 9 1015.3 1015.3 0.0
25/03:30pm 15.9 14.2 11.3 74 2.5 SE 11 15 6 8 1015.3 1015.3 0.0
25/03:00pm 16.2 14.2 11.4 73 2.6 SE 13 19 7 10 1015.5 1015.5 0.0
25/02:30pm 16.2 14.2 11.4 73 2.6 SE 13 17 7 9 1015.4 1015.4 0.0
25/02:00pm 15.9 13.1 11.3 74 2.5 SE 17 19 9 10 1015.8 1015.8 0.0
25/01:30pm 16.2 14.2 11.6 74 2.5 SE 13 20 7 11 1015.7 1015.7 0.0
25/01:00pm 16.5 13.9 11.9 74 2.5 SE 17 24 9 13 1016.0 1016.0 0.0
25/12:30pm 17.4 16.4 12.3 72 2.8 ESE 9 15 5 8 1016.0 1016.0 0.0
25/12:00pm 17.9 17.5 12.4 70 3.1 SSE 6 9 3 5 1016.6 1016.6 0.0
25/11:30am 17.8 17.0 12.9 73 2.7 SW 9 13 5 7 1016.9 1016.9 0.0
25/11:00am 16.7 16.2 12.0 74 2.6 S 6 9 3 5 1017.4 1017.4 0.0
25/10:30am 16.6 16.2 12.4 76 2.3 SSE 6 13 3 7 1017.5 1017.5 0.0
25/10:00am 15.8 15.3 12.2 79 2.0 WSW 6 11 3 6 1017.7 1017.7 0.0
25/09:30am 15.2 15.5 12.3 83 1.6 NNW 2 6 1 3 1017.6 1017.6 0.0
25/09:28am 15.0 15.3 12.1 83 1.6 N 2 6 1 3 1017.6 1017.6 0.0
25/09:00am 14.4 14.0 12.3 87 1.1 N 6 9 3 5 1017.6 1017.6 0.0
25/08:52am 14.2 13.7 12.2 88 1.1 N 6 9 3 5 1017.6 1017.6 0.0
25/08:41am 14.5 14.1 12.9 90 0.9 NNW 7 9 4 5 1017.4 1017.4 0.0
25/08:30am 14.0 13.4 12.4 90 0.9 N 7 13 4 7 1017.6 1017.6 0.0
25/08:00am 13.8 12.8 12.2 90 0.9 NW 9 13 5 7 1017.5 1017.5 0.0
25/07:30am 14.0 12.4 11.7 86 1.2 WNW 11 15 6 8 1017.4 1017.4 0.0
25/07:11am 14.2 13.0 11.7 85 1.3 W 9 13 5 7 1017.2 1017.2 0.0
25/07:00am 14.2 13.0 11.7 85 1.3 W 9 13 5 7 1017.1 1017.1 0.0
25/06:30am 14.2 12.6 11.5 84 1.4 W 11 17 6 9 1016.8 1016.8 0.0
25/06:01am 14.3 12.4 11.8 85 1.3 WSW 13 20 7 11 1016.4 1016.4 0.0
25/06:00am 14.3 12.4 11.8 85 1.3 WSW 13 20 7 11 1016.4 1016.4 0.0
25/05:30am 14.3 12.8 12.0 86 1.2 WSW 11 15 6 8 1015.9 1015.9 0.0
25/05:22am 14.3 12.8 12.0 86 1.2 WSW 11 15 6 8 1015.9 1015.9 0.0
25/05:00am 14.3 12.5 12.0 86 1.2 WSW 13 17 7 9 1015.7 1015.7 0.0
25/04:30am 14.3 11.7 12.0 86 1.2 WSW 17 22 9 12 1015.3 1015.3 0.0
25/04:07am 14.2 11.2 12.1 87 1.1 WSW 19 26 10 14 1015.1 1015.1 0.0
25/04:00am 14.2 11.1 12.2 88 1.1 SW 20 26 11 14 1015.1 1015.1 0.0
25/03:30am 14.1 11.4 12.8 92 0.7 SW 19 28 10 15 1014.9 1014.9 0.0
25/03:00am 14.2 12.4 13.2 94 0.6 WSW 15 20 8 11 1014.7 1014.7 0.0
25/02:30am 14.3 13.8 13.7 96 0.3 WSW 9 13 5 7 1014.7 1014.7 0.0
25/02:23am 14.2 13.3 13.6 96 0.3 SW 11 13 6 7 1014.7 1014.7 0.0
25/02:00am 14.1 13.1 13.3 95 0.4 W 11 15 6 8 1014.4 1014.4 0.0
25/01:30am 13.5 13.0 12.7 95 0.4 WNW 7 9 4 5 1014.5 1014.5 0.0
25/01:00am 14.5 14.2 13.2 92 0.7 W 7 9 4 5 1014.8 1014.8 0.0
25/12:30am 14.8 14.5 12.8 88 1.1 SW 6 7 3 4 1014.7 1014.7 0.0
25/12:00am 16.1 13.4 13.6 85 1.4 S 20 24 11 13 1014.4 1014.4 0.0
 
Date/Time
EDT
Temp
°C
App
Temp
°C
Dew
Point
Rel
Hum
%
Delta-T
°C
Wind Press
QNH
hPa
Press
MSL
hPa
Rain
since 9 am
mm
Dir
 
Spd
km/h
Gust
km/h
Spd
kts
Gust
kts
24/11:30pm 16.5 13.8 13.4 82 1.7 S 20 26 11 14 1014.0 1014.0 0.0
24/11:00pm 16.4 14.5 14.1 86 1.3 SSW 17 19 9 10 1013.6 1013.6 0.0
24/10:30pm 16.4 14.6 14.4 88 1.1 SSW 17 19 9 10 1013.5 1013.5 0.0
24/10:00pm 16.9 15.8 15.4 91 0.9 S 15 17 8 9 1013.3 1013.3 0.0
24/09:30pm 17.3 16.0 15.8 91 0.9 SSW 17 20 9 11 1012.8 1012.8 0.0
24/09:00pm 18.0 18.2 15.8 87 1.3 SSE 9 17 5 9 1011.9 1011.9 0.0
24/08:30pm 20.0 20.7 16.0 78 2.4 E 7 9 4 5 1011.4 1011.3 0.0
24/08:00pm 20.4 21.2 15.8 75 2.8 ENE 6 7 3 4 1011.0 1010.9 0.0
24/07:30pm 21.6 22.6 16.8 74 2.9 ENE 7 9 4 5 1010.6 1010.5 0.0
24/07:00pm 22.3 22.4 15.4 65 4.1 NE 9 9 5 5 1010.3 1010.2 0.0
24/06:30pm 23.0 22.9 16.1 65 4.2 NE 11 13 6 7 1009.9 1009.8 0.0
24/06:00pm 23.6 23.7 16.4 64 4.4 E 11 13 6 7 1009.8 1009.7 0.0
24/05:30pm 24.3 25.8 15.8 59 5.2 E 2 6 1 3 1010.1 1010.0 0.0
24/05:00pm 24.6 25.1 15.5 57 5.5 E 7 9 4 5 1009.9 1009.8 0.0
24/04:30pm 24.5 24.3 15.7 58 5.3 S 11 15 6 8 1009.9 1009.8 0.0
24/04:00pm 23.3 23.0 15.4 61 4.8 SSE 11 17 6 9 1009.9 1009.8 0.0
24/03:30pm 23.2 22.4 16.0 64 4.4 S 15 20 8 11 1009.8 1009.7 0.0
24/03:00pm 24.5 23.5 16.5 61 4.9 S 17 22 9 12 1009.8 1009.7 0.0
24/02:30pm 25.0 24.6 17.2 62 4.9 SSE 15 19 8 10 1009.8 1009.7 0.0
24/02:00pm 25.0 23.8 17.0 61 5.0 S 19 24 10 13 1009.7 1009.6 0.0
24/01:30pm 26.1 26.1 17.2 58 5.6 SE 13 20 7 11 1009.8 1009.7 0.0
24/01:00pm 26.0 26.7 17.1 58 5.6 SE 9 15 5 8 1010.0 1009.9 0.0
24/12:30pm 25.1 26.1 16.8 60 5.1 SSE 7 13 4 7 1010.2 1010.1 0.0
24/12:00pm 23.9 24.5 16.9 65 4.3 ESE 9 13 5 7 1010.5 1010.4 0.0
24/11:30am 22.6 23.4 16.4 68 3.8 ENE 7 13 4 7 1011.0 1010.9 0.0
24/11:00am 21.6 22.3 16.1 71 3.3 NE 7 11 4 6 1011.5 1011.5 0.0
24/10:30am 20.4 20.5 15.6 74 2.9 ENE 9 13 5 7 1011.9 1011.9 0.0
24/10:00am 20.0 20.4 15.4 75 2.7 ENE 7 13 4 7 1012.3 1012.3 0.0
24/09:30am 18.6 18.9 15.1 80 2.0 NE 7 9 4 5 1012.7 1012.7 0.0
24/09:00am 17.5 17.9 16.2 92 0.8 NE 9 11 5 6 1013.1 1013.1 0.2
24/08:30am 16.5 17.0 16.5 100 0.0 NE 9 13 5 7 1013.5 1013.5 0.2
24/08:16am 16.1 16.4 16.1 100 0.0 ENE 9 13 5 7 1013.6 1013.6 0.2
24/08:00am 15.8 15.6 15.8 100 0.0 ENE 11 13 6 7 1013.7 1013.7 0.2
24/07:30am 15.3 15.3 15.3 100 0.0 NE 9 13 5 7 1014.0 1014.0 0.2
24/07:00am 15.2 15.2 15.2 100 0.0 ENE 9 11 5 6 1014.1 1014.1 0.2
24/06:30am 15.1 15.4 15.1 100 0.0 ENE 7 9 4 5 1014.3 1014.3 0.2
24/06:00am 15.2 15.2 15.2 100 0.0 E 9 11 5 6 1014.5 1014.5 0.2
24/05:30am 15.2 14.8 15.2 100 0.0 E 11 15 6 8 1014.4 1014.4 0.2
24/05:00am 15.3 14.9 15.3 100 0.0 E 11 15 6 8 1014.6 1014.6 0.2
24/04:30am 15.6 15.7 15.6 100 0.0 ESE 9 11 5 6 1014.9 1014.9 0.2
24/04:00am 15.6 15.7 15.6 100 0.0 E 9 17 5 9 1015.1 1015.1 0.2
24/03:55am 15.7 15.9 15.7 100 0.0 E 9 13 5 7 1015.2 1015.2 0.2
24/03:30am 15.7 15.5 15.7 100 0.0 E 11 13 6 7 1015.6 1015.6 0.2
24/03:29am 15.6 15.4 15.6 100 0.0 E 11 13 6 7 1015.6 1015.6 0.2
24/03:00am 15.7 15.5 15.7 100 0.0 E 11 15 6 8 1016.0 1016.0 0.2
24/02:30am 15.7 15.9 15.7 100 0.0 E 9 13 5 7 1016.6 1016.6 0.2
24/02:13am 15.6 15.7 15.6 100 0.0 E 9 13 5 7 1016.8 1016.8 0.2
24/02:09am 15.6 15.4 15.6 100 0.0 E 11 13 6 7 1016.9 1016.9 0.2
24/02:00am 15.7 15.5 15.7 100 0.0 E 11 15 6 8 1017.0 1017.0 0.2
24/01:30am 15.7 15.5 15.7 100 0.0 ENE 11 13 6 7 1017.7 1017.7 0.2
24/01:00am 15.7 15.1 15.7 100 0.0 E 13 17 7 9 1018.1 1018.1 0.2
24/12:30am 15.7 14.7 15.7 100 0.0 E 15 19 8 10 1018.6 1018.6 0.2
24/12:00am 15.8 14.1 15.8 100 0.0 E 19 26 10 14 1018.9 1018.9 0.0
 
Date/Time
EDT
Temp
°C
App
Temp
°C
Dew
Point
Rel
Hum
%
Delta-T
°C
Wind Press
QNH
hPa
Press
MSL
hPa
Rain
since 9 am
mm
Dir
 
Spd
km/h
Gust
km/h
Spd
kts
Gust
kts
23/11:30pm 15.8 14.1 15.8 100 0.0 E 19 22 10 12 1019.1 1019.1 0.0
23/11:00pm 15.7 14.4 15.7 100 0.0 E 17 20 9 11 1019.4 1019.4 0.0
23/10:30pm 15.6 14.2 15.6 100 0.0 E 17 22 9 12 1019.5 1019.5 0.0
23/10:00pm 15.6 14.9 15.4 99 0.1 ESE 13 19 7 10 1019.8 1019.8 0.0
23/09:30pm 15.5 14.8 15.3 99 0.1 ESE 13 19 7 10 1020.2 1020.2 0.0
23/09:00pm 15.5 15.1 15.2 98 0.2 ESE 11 15 6 8 1020.3 1020.3 0.0
23/08:30pm 15.5 13.9 14.9 96 0.3 ESE 17 24 9 13 1020.3 1020.3 0.0
23/08:00pm 15.5 13.7 14.5 94 0.6 ESE 17 24 9 13 1020.3 1020.3 0.0
23/07:30pm 15.6 13.4 14.5 93 0.6 E 19 26 10 14 1020.2 1020.2 0.0
23/07:00pm 15.4 13.2 14.3 93 0.6 E 19 24 10 13 1020.0 1020.0 0.0
23/06:30pm 15.5 13.0 14.2 92 0.7 ESE 20 26 11 14 1020.0 1020.0 0.0
23/06:00pm 15.6 13.3 14.1 91 0.8 ESE 19 24 10 13 1020.1 1020.1 0.0
23/05:30pm 15.8 12.8 13.8 88 1.1 ESE 22 28 12 15 1019.9 1019.9 0.0
23/05:00pm 16.4 13.1 13.9 85 1.4 ESE 24 33 13 18 1019.7 1019.7 0.0
23/04:30pm 15.9 11.8 13.7 87 1.2 ESE 28 37 15 20 1019.7 1019.7 0.0
23/04:00pm 16.2 12.9 13.9 86 1.3 ESE 24 33 13 18 1019.7 1019.7 0.0
23/03:30pm 16.3 12.1 13.6 84 1.5 ESE 28 35 15 19 1019.9 1019.9 0.0
23/03:00pm 16.5 12.8 14.0 85 1.4 ESE 26 39 14 21 1019.9 1019.9 0.0
23/02:30pm 16.5 13.3 14.3 87 1.3 ESE 24 32 13 17 1020.2 1020.2 0.0
23/02:00pm 16.7 13.6 14.5 87 1.3 ESE 24 32 13 17 1020.4 1020.4 0.0
23/01:30pm 16.8 14.5 14.6 87 1.3 ESE 20 26 11 14 1020.5 1020.5 0.0
23/01:07pm 16.7 14.5 14.5 87 1.3 ESE 19 24 10 13 1020.7 1020.7 0.0
23/01:00pm 16.9 14.7 14.5 86 1.4 SE 19 24 10 13 1020.6 1020.6 0.0
23/12:30pm 16.9 15.0 15.1 89 1.0 ESE 19 26 10 14 1020.8 1020.8 0.0
23/12:00pm 16.4 15.0 15.6 95 0.5 SE 17 20 9 11 1020.9 1020.9 0.0
23/11:30am 16.6 15.0 15.1 91 0.9 SSE 17 20 9 11 1021.1 1021.1 0.0
23/11:13am 16.8 15.4 14.6 87 1.3 SSE 15 19 8 10 1021.1 1021.1 0.0
23/11:07am 16.9 15.5 14.4 85 1.4 SSE 15 19 8 10 1021.1 1021.1 0.0

Other Formats:

Comma delimited format used in spreadsheet applications
http://www.bom.gov.au/fwo/IDV60801/IDV60801.94912.axf

JavaScript Object Notation format (JSON) in row-major order
http://www.bom.gov.au/fwo/IDV60801/IDV60801.94912.json